Terminal Aerodrome Forecast
Issued by NWS Blacksburg, VA

Current Version | Previous Version | Graphics & Text | Print | Product List | Glossary On
Versions: 1 2 3 4 5 6 7 8 9 10 11 12 13 14 15 16 17 18 19 20 21 22 23 24 25 26 27 28
000
FTUS41 KRNK 251820 AAA
TAFBLF
TAF AMD
KBLF 251820Z 2518/2618 30010G20KT P6SM OVC040
     FM260000 31004KT P6SM OVC005
     FM260800 30003KT 2SM BR OVC003
     FM261400 33005KT P6SM BKN040=

USA.gov is the U.S. government's official web portal to all federal, state and local government web resources and services.